WXM80 ListenWXM80 Stop

You find our weather info also at:

UK Metoffice

WeatherCloud

Weather Underground

Northeastern Weather Network

AWEKAS

Citizen Weather Observer Program (CWOP)

HAMweather, WeatherForYou, PWS Weather


Weather Underground History page Text

Daily Summary for August 24, 2016 Units:  English    Metric   Both
« Previous Day
Next Day »
Daily Weekly Monthly Yearly Custom
  High: Low: Average:
Temperature: 90.1 °F 63.4 °F 75.9 °F
Dew Point: 70.5 °F 60.2 °F 64.5 °F
Humidity: 92 % 43 % 70 %
Wind Speed: 5.2 mph 0.0 mph 1.3 mph
Wind Gust: 9.2 mph - -
Wind:- - SSW
Pressure: 30.26 in 30.13 in -
Precipitation: 0.00 in    
Historical Graphs
 
 
Tabular Data for August 24, 2016
Time Temperature Dew Point Pressure Wind Wind Speed Wind Gust Humidity Rainfall Rate (Hourly)
00:01 69.8 °F 63.0 °F 30.23 in SSW 1.0 mph 2.0 mph 79 % 0.00 in
00:06 69.7 °F 62.9 °F 30.23 in SSW 1.0 mph 3.0 mph 79 % 0.00 in
00:11 69.7 °F 62.9 °F 30.23 in Calm   2.0 mph 79 % 0.00 in
00:16 69.6 °F 62.8 °F 30.23 in WSW 0.8 mph 3.5 mph 79 % 0.00 in
00:21 69.5 °F 62.7 °F 30.23 in Calm   4.0 mph 79 % 0.00 in
00:26 69.5 °F 62.7 °F 30.23 in SW 2.0 mph 5.0 mph 79 % 0.00 in
00:31 69.4 °F 62.6 °F 30.24 in SW 2.0 mph 3.0 mph 79 % 0.00 in
00:36 69.4 °F 62.2 °F 30.24 in Calm   4.0 mph 78 % 0.00 in
00:41 69.3 °F 62.1 °F 30.24 in SSW 1.0 mph 3.0 mph 78 % 0.00 in
00:46 69.3 °F 62.5 °F 30.24 in SW 1.0 mph 3.0 mph 79 % 0.00 in
00:51 69.2 °F 62.0 °F 30.24 in WSW 0.7 mph 3.0 mph 78 % 0.00 in
01:01 69.1 °F 61.9 °F 30.24 in SSW 1.6 mph 3.5 mph 78 % 0.00 in
01:06 69.0 °F 61.9 °F 30.25 in SW 1.0 mph 3.0 mph 78 % 0.00 in
01:11 68.9 °F 61.8 °F 30.24 in SW 1.0 mph 2.0 mph 78 % 0.00 in
01:16 68.9 °F 61.8 °F 30.24 in SSW 2.0 mph 4.0 mph 78 % 0.00 in
01:21 68.8 °F 61.7 °F 30.24 in SSW 0.1 mph 1.2 mph 78 % 0.00 in
01:26 68.7 °F 61.6 °F 30.24 in Calm     78 % 0.00 in
01:31 68.6 °F 61.5 °F 30.24 in Calm   1.2 mph 78 % 0.00 in
01:36 68.6 °F 61.5 °F 30.24 in SW 0.3 mph 1.2 mph 78 % 0.00 in
01:41 68.5 °F 61.7 °F 30.24 in SW 0.3 mph 2.3 mph 79 % 0.00 in
01:51 68.3 °F 61.5 °F 30.24 in Calm     79 % 0.00 in
01:56 68.2 °F 61.4 °F 30.23 in Calm   1.2 mph 79 % 0.00 in
02:01 68.1 °F 61.3 °F 30.23 in West 0.2 mph 1.2 mph 79 % 0.00 in
02:07 68.0 °F 61.2 °F 30.23 in Calm     79 % 0.00 in
02:12 68.0 °F 61.2 °F 30.23 in Calm   1.2 mph 79 % 0.00 in
02:17 67.9 °F 61.1 °F 30.23 in Calm     79 % 0.00 in
02:22 67.8 °F 61.0 °F 30.23 in Calm     79 % 0.00 in
02:27 67.8 °F 61.0 °F 30.23 in Calm     79 % 0.00 in
02:32 67.7 °F 61.3 °F 30.23 in Calm     80 % 0.00 in
02:37 67.7 °F 61.3 °F 30.23 in WNW 0.1 mph 1.2 mph 80 % 0.00 in
02:43 67.6 °F 61.2 °F 30.23 in Calm     80 % 0.00 in
02:48 67.5 °F 61.1 °F 30.23 in Calm     80 % 0.00 in
02:53 67.4 °F 61.0 °F 30.23 in Calm     80 % 0.00 in
02:59 67.3 °F 60.9 °F 30.23 in Calm   1.2 mph 80 % 0.00 in
03:04 67.2 °F 61.2 °F 30.23 in WNW 0.6 mph 2.3 mph 81 % 0.00 in
03:09 67.0 °F 61.0 °F 30.23 in Calm     81 % 0.00 in
03:15 66.9 °F 60.9 °F 30.23 in WNW 0.2 mph 2.3 mph 81 % 0.00 in
03:20 66.9 °F 60.9 °F 30.22 in WNW 0.9 mph 2.3 mph 81 % 0.00 in
03:25 66.8 °F 61.1 °F 30.23 in WNW 1.0 mph 3.5 mph 82 % 0.00 in
03:30 66.7 °F 61.0 °F 30.22 in WSW 1.2 mph 3.5 mph 82 % 0.00 in
03:35 66.7 °F 61.0 °F 30.22 in WSW 0.2 mph 2.0 mph 82 % 0.00 in
03:40 66.7 °F 61.0 °F 30.22 in WSW 0.1 mph 1.2 mph 82 % 0.00 in
03:45 66.6 °F 60.9 °F 30.22 in Calm     82 % 0.00 in
03:50 66.6 °F 60.9 °F 30.22 in WSW 0.1 mph 1.2 mph 82 % 0.00 in
03:55 66.5 °F 61.2 °F 30.22 in WSW 1.7 mph 3.0 mph 83 % 0.00 in
04:00 66.4 °F 61.4 °F 30.22 in SW 1.5 mph 3.5 mph 84 % 0.00 in
04:06 66.4 °F 61.4 °F 30.22 in SW 1.0 mph 4.0 mph 84 % 0.00 in
04:11 66.3 °F 61.3 °F 30.22 in SW 1.7 mph 3.5 mph 84 % 0.00 in
04:16 66.2 °F 61.6 °F 30.22 in SW 2.0 mph 3.0 mph 85 % 0.00 in
04:21 66.2 °F 61.5 °F 30.22 in SW 2.0 mph 3.0 mph 85 % 0.00 in
04:25 66.1 °F 61.5 °F 30.22 in SW 2.1 mph 3.5 mph 85 % 0.00 in
04:31 66.1 °F 61.5 °F 30.22 in SW 2.0 mph 4.0 mph 85 % 0.00 in
04:36 66.0 °F 61.4 °F 30.22 in SW 2.0 mph 4.0 mph 85 % 0.00 in
04:41 66.0 °F 61.7 °F 30.22 in SW 2.0 mph 3.0 mph 86 % 0.00 in
04:46 65.9 °F 61.6 °F 30.22 in SW 2.0 mph 3.0 mph 86 % 0.00 in
04:51 65.9 °F 61.6 °F 30.22 in SW 1.0 mph 2.0 mph 86 % 0.00 in
04:56 65.8 °F 61.5 °F 30.22 in SW 1.0 mph 2.0 mph 86 % 0.00 in
05:01 65.8 °F 61.5 °F 30.22 in SW 1.6 mph 3.5 mph 86 % 0.00 in
05:06 65.7 °F 61.4 °F 30.22 in SW 1.1 mph 3.5 mph 86 % 0.00 in
05:11 65.7 °F 61.4 °F 30.22 in Calm     86 % 0.00 in
05:16 65.5 °F 61.2 °F 30.22 in Calm     86 % 0.00 in
05:21 65.4 °F 61.1 °F 30.22 in Calm     86 % 0.00 in
05:26 65.3 °F 61.0 °F 30.22 in Calm     86 % 0.00 in
05:31 65.2 °F 60.9 °F 30.23 in Calm     86 % 0.00 in
05:36 65.1 °F 60.8 °F 30.23 in Calm     86 % 0.00 in
05:41 65.0 °F 60.7 °F 30.23 in Calm     86 % 0.00 in
05:46 64.8 °F 60.8 °F 30.23 in Calm     87 % 0.00 in
05:52 64.7 °F 60.7 °F 30.23 in Calm     87 % 0.00 in
05:57 64.5 °F 60.5 °F 30.23 in Calm   1.2 mph 87 % 0.00 in
06:02 64.4 °F 60.8 °F 30.23 in Calm     88 % 0.00 in
06:07 64.2 °F 60.2 °F 30.23 in Calm     87 % 0.00 in
06:12 64.1 °F 60.2 °F 30.23 in Calm     87 % 0.00 in
06:17 64.0 °F 60.4 °F 30.24 in Calm     88 % 0.00 in
06:22 63.9 °F 60.3 °F 30.24 in Calm     88 % 0.00 in
06:27 63.8 °F 60.5 °F 30.24 in Calm     89 % 0.00 in
06:38 63.6 °F 60.3 °F 30.24 in Calm     89 % 0.00 in
06:43 63.5 °F 60.2 °F 30.24 in Calm     89 % 0.00 in
06:48 63.5 °F 60.2 °F 30.24 in Calm     89 % 0.00 in
06:53 63.4 °F 60.4 °F 30.24 in Calm   1.2 mph 90 % 0.00 in
06:58 63.4 °F 60.4 °F 30.25 in SSW 0.6 mph 2.3 mph 90 % 0.00 in
07:03 63.5 °F 60.8 °F 30.25 in SSW 0.3 mph 1.2 mph 91 % 0.00 in
07:08 63.6 °F 60.9 °F 30.25 in SSW 0.1 mph   91 % 0.00 in
07:13 63.7 °F 61.0 °F 30.25 in Calm   1.2 mph 91 % 0.00 in
07:18 63.9 °F 61.5 °F 30.25 in SSW 0.1 mph 1.2 mph 92 % 0.00 in
07:23 64.0 °F 61.6 °F 30.25 in Calm     92 % 0.00 in
07:29 64.3 °F 61.9 °F 30.25 in Calm     92 % 0.00 in
07:34 64.6 °F 62.2 °F 30.26 in Calm     92 % 0.00 in
07:39 64.8 °F 62.4 °F 30.26 in Calm     92 % 0.00 in
07:44 65.0 °F 62.6 °F 30.25 in WSW 0.4 mph 2.3 mph 92 % 0.00 in
07:54 65.7 °F 63.3 °F 30.25 in WSW 0.1 mph 1.2 mph 92 % 0.00 in
07:59 66.1 °F 63.7 °F 30.25 in WSW 0.3 mph 2.3 mph 92 % 0.00 in
08:04 66.5 °F 64.1 °F 30.25 in SW 1.4 mph 2.3 mph 92 % 0.00 in
08:09 66.8 °F 64.4 °F 30.25 in SSW 1.0 mph 3.5 mph 92 % 0.00 in
08:14 67.2 °F 64.5 °F 30.25 in WSW 0.8 mph 3.5 mph 91 % 0.00 in
08:19 67.6 °F 64.9 °F 30.26 in WSW 2.4 mph 3.5 mph 91 % 0.00 in
08:24 68.0 °F 65.0 °F 30.26 in SW 1.7 mph 5.8 mph 90 % 0.00 in
08:30 68.4 °F 65.0 °F 30.25 in WSW 2.8 mph 4.6 mph 89 % 0.00 in
08:35 68.7 °F 65.0 °F 30.25 in WSW 4.0 mph 4.6 mph 88 % 0.00 in
08:40 69.1 °F 65.1 °F 30.26 in WSW 1.4 mph 3.5 mph 87 % 0.00 in
08:45 69.5 °F 65.1 °F 30.26 in SW 2.9 mph 4.6 mph 86 % 0.00 in
08:50 69.8 °F 65.4 °F 30.25 in SW 1.9 mph 3.5 mph 86 % 0.00 in
08:55 70.1 °F 65.4 °F 30.25 in WSW 1.1 mph 3.5 mph 85 % 0.00 in
09:05 70.7 °F 65.3 °F 30.25 in SW 1.4 mph 3.5 mph 83 % 0.00 in
09:10 71.0 °F 65.6 °F 30.25 in SSW 1.4 mph 3.5 mph 83 % 0.00 in
09:15 71.2 °F 65.4 °F 30.25 in SSW 2.1 mph 3.5 mph 82 % 0.00 in
09:21 71.5 °F 65.4 °F 30.25 in SW 3.0 mph 7.0 mph 81 % 0.00 in
09:26 71.9 °F 65.8 °F 30.25 in SSW 4.2 mph 5.8 mph 81 % 0.00 in
09:31 72.2 °F 65.7 °F 30.25 in SW 2.0 mph 6.0 mph 80 % 0.00 in
09:36 72.6 °F 65.7 °F 30.25 in WSW 3.0 mph 6.0 mph 79 % 0.00 in
09:41 73.1 °F 65.5 °F 30.24 in WSW 2.5 mph 4.6 mph 77 % 0.00 in
09:46 73.7 °F 66.4 °F 30.25 in SW 2.0 mph 6.0 mph 78 % 0.00 in
09:51 74.3 °F 66.2 °F 30.25 in SW 1.0 mph 5.0 mph 76 % 0.00 in
09:56 75.2 °F 66.7 °F 30.25 in WNW 0.9 mph 3.5 mph 75 % 0.00 in
10:06 77.0 °F 67.7 °F 30.25 in SSW 1.2 mph 3.5 mph 73 % 0.00 in
10:11 77.6 °F 66.6 °F 30.24 in SSW 2.9 mph 3.5 mph 69 % 0.00 in
10:16 77.9 °F 66.1 °F 30.24 in SW 1.8 mph 3.5 mph 67 % 0.00 in
10:21 78.2 °F 65.9 °F 30.24 in WNW 3.4 mph 5.0 mph 66 % 0.00 in
10:26 78.3 °F 66.0 °F 30.24 in SW 4.6 mph 6.0 mph 66 % 0.00 in
10:31 78.4 °F 65.2 °F 30.24 in WSW 3.3 mph 4.6 mph 64 % 0.00 in
10:36 78.8 °F 67.8 °F 30.24 in SW 0.7 mph 2.0 mph 69 % 0.00 in
10:41 79.1 °F 66.8 °F 30.24 in WNW 3.6 mph 4.0 mph 66 % 0.00 in
10:47 79.6 °F 66.8 °F 30.24 in West 1.3 mph 3.5 mph 65 % 0.00 in
10:52 80.2 °F 66.9 °F 30.24 in SSW 2.7 mph 3.5 mph 64 % 0.00 in
10:57 80.9 °F 68.5 °F 30.24 in NNW 2.0 mph 3.5 mph 66 % 0.00 in
11:02 81.6 °F 67.3 °F 30.24 in WSW 3.9 mph 5.8 mph 62 % 0.00 in
11:07 82.6 °F 69.2 °F 30.24 in North 1.3 mph 3.5 mph 64 % 0.00 in
11:12 83.5 °F 70.5 °F 30.23 in North 0.6 mph 2.0 mph 65 % 0.00 in
11:17 84.3 °F 69.9 °F 30.23 in NNE 1.6 mph 4.6 mph 62 % 0.00 in
11:22 84.8 °F 68.4 °F 30.24 in West 2.9 mph 6.0 mph 58 % 0.00 in
11:27 85.2 °F 67.2 °F 30.23 in NNW 1.6 mph 3.5 mph 55 % 0.00 in
11:32 85.6 °F 67.0 °F 30.23 in WNW 3.0 mph 4.0 mph 54 % 0.00 in
11:38 86.0 °F 69.0 °F 30.23 in NNW 2.9 mph 4.6 mph 57 % 0.00 in
11:43 86.2 °F 68.1 °F 30.23 in WNW 2.5 mph 5.8 mph 55 % 0.00 in
11:48 86.5 °F 66.8 °F 30.23 in North 1.6 mph 5.8 mph 52 % 0.00 in
11:53 86.9 °F 67.2 °F 30.23 in NNE 1.7 mph 5.8 mph 52 % 0.00 in
11:58 87.3 °F 66.4 °F 30.23 in WNW 2.4 mph 3.5 mph 50 % 0.00 in
12:03 87.4 °F 65.3 °F 30.22 in NW 2.4 mph 5.8 mph 48 % 0.00 in
12:13 88.2 °F 70.0 °F 30.22 in NNE 1.2 mph 3.5 mph 55 % 0.00 in
12:18 88.6 °F 67.6 °F 30.22 in North 1.5 mph 3.5 mph 50 % 0.00 in
12:23 88.7 °F 67.1 °F 30.21 in North 1.4 mph 4.6 mph 49 % 0.00 in
12:29 88.8 °F 68.9 °F 30.21 in WNW 1.0 mph 2.3 mph 52 % 0.00 in
12:34 89.0 °F 67.4 °F 30.21 in North 4.3 mph 4.6 mph 49 % 0.00 in
12:39 89.3 °F 66.4 °F 30.20 in NNE 3.1 mph 4.6 mph 47 % 0.00 in
12:44 89.5 °F 67.8 °F 30.20 in WNW 1.0 mph 3.5 mph 49 % 0.00 in
12:49 89.7 °F 69.2 °F 30.20 in NW 1.2 mph 2.3 mph 51 % 0.00 in
12:54 89.8 °F 68.1 °F 30.21 in North 2.7 mph 4.6 mph 49 % 0.00 in
12:59 89.8 °F 68.7 °F 30.20 in NW 0.9 mph 2.0 mph 50 % 0.00 in
13:04 90.0 °F 67.7 °F 30.20 in NW 1.4 mph 3.5 mph 48 % 0.00 in
13:09 90.1 °F 69.0 °F 30.20 in WNW 3.2 mph 4.0 mph 50 % 0.00 in
13:14 90.0 °F 66.4 °F 30.19 in NE 2.7 mph 3.5 mph 46 % 0.00 in
13:20 89.8 °F 68.1 °F 30.19 in NNE 1.9 mph 3.5 mph 49 % 0.00 in
13:25 89.6 °F 67.9 °F 30.19 in NNW 1.3 mph 3.5 mph 49 % 0.00 in
13:30 89.7 °F 66.2 °F 30.19 in South 2.9 mph 4.6 mph 46 % 0.00 in
13:35 89.7 °F 68.6 °F 30.18 in North 2.7 mph 7.0 mph 50 % 0.00 in
13:40 89.8 °F 68.7 °F 30.18 in West 0.5 mph 2.3 mph 50 % 0.00 in
13:45 90.0 °F 67.1 °F 30.18 in North 2.9 mph 4.6 mph 47 % 0.00 in
13:50 90.1 °F 67.8 °F 30.18 in NNE 3.0 mph 4.0 mph 48 % 0.00 in
13:55 90.0 °F 67.7 °F 30.18 in NNE 0.3 mph 2.3 mph 48 % 0.00 in
14:00 89.9 °F 67.0 °F 30.18 in North 2.8 mph 3.5 mph 47 % 0.00 in
14:05 89.8 °F 66.3 °F 30.18 in WNW 3.2 mph 4.6 mph 46 % 0.00 in
14:16 89.8 °F 68.1 °F 30.18 in NNW 1.6 mph 3.5 mph 49 % 0.00 in
14:21 89.8 °F 66.3 °F 30.18 in NNW 2.0 mph 6.0 mph 46 % 0.00 in
14:26 89.7 °F 66.2 °F 30.17 in NNW 2.0 mph 4.0 mph 46 % 0.00 in
14:31 89.8 °F 67.5 °F 30.17 in NW 1.2 mph 3.5 mph 48 % 0.00 in
14:36 89.8 °F 64.3 °F 30.17 in NW 3.0 mph 6.0 mph 43 % 0.00 in
14:41 89.6 °F 65.4 °F 30.17 in NNE 4.7 mph 5.0 mph 45 % 0.00 in
14:46 89.1 °F 66.9 °F 30.17 in NNE 2.2 mph 4.6 mph 48 % 0.00 in
14:51 88.9 °F 66.7 °F 30.17 in NE 1.4 mph 3.5 mph 48 % 0.00 in
14:56 88.9 °F 66.7 °F 30.17 in NE 0.8 mph 2.3 mph 48 % 0.00 in
15:06 88.7 °F 65.9 °F 30.16 in NNE 3.5 mph 5.8 mph 47 % 0.00 in
15:11 88.7 °F 66.5 °F 30.16 in North 1.2 mph 3.5 mph 48 % 0.00 in
15:16 88.9 °F 64.8 °F 30.16 in ESE 0.6 mph 2.3 mph 45 % 0.00 in
15:21 88.9 °F 65.4 °F 30.16 in NE 1.5 mph 3.5 mph 46 % 0.00 in
15:26 88.5 °F 66.3 °F 30.16 in ENE 0.6 mph 3.5 mph 48 % 0.00 in
15:32 88.3 °F 65.5 °F 30.16 in NE 0.6 mph 3.5 mph 47 % 0.00 in
15:37 88.2 °F 65.4 °F 30.16 in NE 1.1 mph 4.6 mph 47 % 0.00 in
15:42 87.9 °F 65.8 °F 30.16 in NE 4.9 mph 9.2 mph 48 % 0.00 in
15:47 87.9 °F 65.2 °F 30.16 in NE 2.7 mph 6.9 mph 47 % 0.00 in
15:52 87.9 °F 65.8 °F 30.15 in North 2.7 mph 3.5 mph 48 % 0.00 in
16:02 87.8 °F 66.8 °F 30.15 in ENE 1.1 mph 2.3 mph 50 % 0.00 in
16:07 87.9 °F 63.9 °F 30.16 in NW 1.5 mph 6.9 mph 45 % 0.00 in
16:12 87.9 °F 65.2 °F 30.15 in NE 0.2 mph 4.6 mph 47 % 0.00 in
16:17 88.1 °F 64.1 °F 30.15 in SW 0.1 mph 5.8 mph 45 % 0.00 in
16:23 88.3 °F 64.3 °F 30.14 in SE 1.2 mph 3.5 mph 45 % 0.00 in
16:28 88.0 °F 65.2 °F 30.14 in SSE 3.4 mph 5.8 mph 47 % 0.00 in
16:33 87.8 °F 66.3 °F 30.14 in SE 0.7 mph 2.3 mph 49 % 0.00 in
16:38 87.7 °F 65.6 °F 30.14 in SSW 2.2 mph 5.0 mph 48 % 0.00 in
16:43 87.3 °F 65.8 °F 30.14 in SW 1.5 mph 3.5 mph 49 % 0.00 in
16:48 86.9 °F 65.4 °F 30.14 in SE 1.2 mph 3.5 mph 49 % 0.00 in
16:53 86.5 °F 65.7 °F 30.14 in South 2.9 mph 3.5 mph 50 % 0.00 in
16:58 86.2 °F 65.9 °F 30.14 in SSE 1.9 mph 3.5 mph 51 % 0.00 in
17:03 85.7 °F 64.9 °F 30.14 in South 2.5 mph 3.5 mph 50 % 0.00 in
17:08 85.5 °F 65.9 °F 30.14 in SE 2.9 mph 3.5 mph 52 % 0.00 in
17:14 85.4 °F 65.8 °F 30.14 in South 1.1 mph 4.6 mph 52 % 0.00 in
17:19 85.3 °F 65.1 °F 30.14 in SSW 0.9 mph 4.6 mph 51 % 0.00 in
17:24 85.1 °F 65.5 °F 30.14 in South 0.8 mph 4.0 mph 52 % 0.00 in
17:29 85.0 °F 65.4 °F 30.14 in SSE 1.8 mph 3.5 mph 52 % 0.00 in
17:34 84.9 °F 65.9 °F 30.14 in SSW 5.2 mph 7.0 mph 53 % 0.00 in
17:39 84.8 °F 64.7 °F 30.14 in SE 1.0 mph 4.6 mph 51 % 0.00 in
17:44 84.7 °F 65.1 °F 30.14 in South 2.7 mph 5.8 mph 52 % 0.00 in
17:49 84.4 °F 64.9 °F 30.14 in SSE 0.5 mph 3.5 mph 52 % 0.00 in
17:54 84.1 °F 64.6 °F 30.14 in SSW 3.5 mph 5.8 mph 52 % 0.00 in
17:59 84.0 °F 65.0 °F 30.14 in South 3.5 mph 3.5 mph 53 % 0.00 in
18:05 83.8 °F 64.3 °F 30.14 in SE 1.1 mph 3.0 mph 52 % 0.00 in
18:10 83.4 °F 64.5 °F 30.14 in SW 1.0 mph 6.0 mph 53 % 0.00 in
18:15 83.1 °F 64.7 °F 30.14 in SSW 0.7 mph 3.5 mph 54 % 0.00 in
18:20 82.6 °F 64.8 °F 30.14 in SSE 1.2 mph 4.6 mph 55 % 0.00 in
18:25 82.1 °F 65.4 °F 30.14 in SE 2.7 mph 4.0 mph 57 % 0.00 in
18:30 81.7 °F 65.5 °F 30.13 in SE 0.5 mph 5.8 mph 58 % 0.00 in
18:35 81.4 °F 65.7 °F 30.14 in West 1.6 mph 3.5 mph 59 % 0.00 in
18:40 81.1 °F 65.9 °F 30.14 in WSW 1.1 mph 3.5 mph 60 % 0.00 in
18:45 80.8 °F 65.6 °F 30.14 in SSE 0.7 mph 2.3 mph 60 % 0.00 in
18:50 80.5 °F 65.4 °F 30.14 in SSE 1.0 mph 4.0 mph 60 % 0.00 in
18:55 80.2 °F 65.0 °F 30.14 in SSE 1.0 mph 6.0 mph 60 % 0.00 in
19:01 79.8 °F 65.2 °F 30.13 in SE 0.1 mph 3.5 mph 61 % 0.00 in
19:06 79.4 °F 65.2 °F 30.14 in West 0.8 mph 3.5 mph 62 % 0.00 in
19:11 79.1 °F 65.0 °F 30.13 in South 0.9 mph 3.5 mph 62 % 0.00 in
19:16 78.8 °F 65.1 °F 30.14 in South 1.3 mph 3.5 mph 63 % 0.00 in
19:21 78.5 °F 64.9 °F 30.14 in SSE 1.1 mph 3.5 mph 63 % 0.00 in
19:26 78.2 °F 65.0 °F 30.14 in ESE 0.2 mph 1.2 mph 64 % 0.00 in
19:31 77.9 °F 65.2 °F 30.14 in SE 1.1 mph 3.5 mph 65 % 0.00 in
19:36 77.6 °F 64.9 °F 30.14 in SSE 1.6 mph 2.3 mph 65 % 0.00 in
19:41 77.3 °F 65.1 °F 30.14 in SSW 0.3 mph 3.5 mph 66 % 0.00 in
19:46 77.1 °F 64.9 °F 30.14 in South 0.4 mph 3.5 mph 66 % 0.00 in
19:52 76.8 °F 65.0 °F 30.14 in SE 0.5 mph 4.6 mph 67 % 0.00 in
19:57 76.6 °F 65.2 °F 30.14 in SSE 1.6 mph 4.6 mph 68 % 0.00 in
20:07 76.2 °F 65.3 °F 30.13 in SSW 1.2 mph 3.5 mph 69 % 0.00 in
20:12 76.0 °F 65.1 °F 30.13 in South 0.2 mph 1.2 mph 69 % 0.00 in
20:17 75.8 °F 65.3 °F 30.14 in South 0.6 mph 3.0 mph 70 % 0.00 in
20:22 75.7 °F 65.2 °F 30.14 in SE 1.0 mph 3.5 mph 70 % 0.00 in
20:27 75.6 °F 65.5 °F 30.14 in South 1.6 mph 4.0 mph 71 % 0.00 in
20:32 75.4 °F 65.3 °F 30.14 in South 0.9 mph 2.3 mph 71 % 0.00 in
20:37 75.3 °F 65.6 °F 30.14 in SSE 0.7 mph 3.5 mph 72 % 0.00 in
20:43 75.2 °F 65.6 °F 30.14 in SSW 1.6 mph 3.5 mph 72 % 0.00 in
20:48 75.1 °F 65.5 °F 30.14 in SSW 1.2 mph 3.5 mph 72 % 0.00 in
20:53 75.0 °F 65.8 °F 30.14 in SSW 0.9 mph 3.5 mph 73 % 0.00 in
20:58 74.9 °F 65.7 °F 30.14 in South 0.4 mph 3.5 mph 73 % 0.00 in
21:03 74.8 °F 65.6 °F 30.14 in SSE 2.1 mph 6.9 mph 73 % 0.00 in
21:08 74.8 °F 65.6 °F 30.14 in SSW 1.1 mph 3.0 mph 73 % 0.00 in
21:13 74.7 °F 65.9 °F 30.14 in SSW 1.4 mph 3.5 mph 74 % 0.00 in
21:18 74.6 °F 65.8 °F 30.14 in SW 1.7 mph 3.5 mph 74 % 0.00 in
21:23 74.6 °F 65.8 °F 30.14 in SSE 0.5 mph 3.5 mph 74 % 0.00 in
21:28 74.5 °F 65.7 °F 30.14 in SSW 0.7 mph 3.5 mph 74 % 0.00 in
21:34 74.5 °F 65.7 °F 30.15 in SSW 0.9 mph 3.5 mph 74 % 0.00 in
21:39 74.4 °F 65.6 °F 30.15 in South 1.0 mph 3.5 mph 74 % 0.00 in
21:44 74.4 °F 66.0 °F 30.15 in South 0.3 mph 4.6 mph 75 % 0.00 in
21:49 74.3 °F 65.9 °F 30.15 in South 2.4 mph 3.5 mph 75 % 0.00 in
21:54 74.3 °F 65.9 °F 30.15 in SSW 1.3 mph 5.0 mph 75 % 0.00 in
21:59 74.3 °F 65.9 °F 30.15 in SSE 1.3 mph 4.0 mph 75 % 0.00 in
22:04 74.3 °F 65.9 °F 30.14 in SSW 1.3 mph 3.5 mph 75 % 0.00 in
22:09 74.2 °F 65.8 °F 30.14 in SSE 1.8 mph 4.6 mph 75 % 0.00 in
22:14 74.2 °F 65.8 °F 30.14 in South 1.3 mph 2.3 mph 75 % 0.00 in
22:19 74.1 °F 66.0 °F 30.14 in SSW 1.6 mph 3.5 mph 76 % 0.00 in
22:25 74.0 °F 66.0 °F 30.14 in SSE 0.9 mph 2.3 mph 76 % 0.00 in
22:30 74.0 °F 66.0 °F 30.14 in South 0.4 mph 3.5 mph 76 % 0.00 in
22:35 73.9 °F 65.9 °F 30.14 in SSW 0.9 mph 3.5 mph 76 % 0.00 in
22:45 73.7 °F 66.0 °F 30.14 in SSW 0.4 mph 2.3 mph 77 % 0.00 in
22:50 73.7 °F 66.0 °F 30.14 in SSW 1.2 mph 3.5 mph 77 % 0.00 in
22:55 73.6 °F 66.3 °F 30.14 in SSW 2.4 mph 3.5 mph 78 % 0.00 in
23:00 73.5 °F 66.2 °F 30.14 in South 1.2 mph 3.5 mph 78 % 0.00 in
23:05 73.5 °F 66.2 °F 30.14 in West 0.7 mph 2.3 mph 78 % 0.00 in
23:10 73.5 °F 66.2 °F 30.14 in SSW 3.1 mph 5.0 mph 78 % 0.00 in
23:16 73.4 °F 66.1 °F 30.14 in SSW 2.0 mph 7.0 mph 78 % 0.00 in
23:21 73.3 °F 66.1 °F 30.14 in SSW 2.0 mph 8.0 mph 78 % 0.00 in
23:26 73.3 °F 66.0 °F 30.14 in SSW 1.0 mph 6.0 mph 78 % 0.00 in
23:31 73.2 °F 65.9 °F 30.14 in SSW 2.0 mph 6.0 mph 78 % 0.00 in
23:36 73.2 °F 66.3 °F 30.14 in SSW 2.0 mph 8.0 mph 79 % 0.00 in
23:41 73.2 °F 66.3 °F 30.13 in SSW 2.0 mph 7.0 mph 79 % 0.00 in
23:46 73.1 °F 66.6 °F 30.13 in SSW 3.0 mph 9.0 mph 80 % 0.00 in
23:51 73.1 °F 66.6 °F 30.13 in SSW 1.0 mph 4.0 mph 80 % 0.00 in
23:56 73.0 °F 66.5 °F 30.13 in SSW 2.0 mph 5.0 mph 80 % 0.00 in
Crab Meadow Weather
Compliments of Weather Underground - 2.75 mb

Script developed by  Jim McMurry - jmcmurry@mwt.net Adapted for the template by  Wim van der Kuil - Leuven-Template.eu

Astronomy: Our moon is moving away from the earth at about 3cm per year.